Time;durP1;ratioP1;P1;durP2;ratioP2;P2;SDS_P1;SDS_P2;PMS_P1;PMS_P2;Temp;Humidity;BMP_temperature;BMP_pressure;BME280_temperature;BME280_humidity;BME280_pressure;Samples;Min_cycle;Max_cycle;Signal;HPM_P1;HPM_P2
2023/05/28 00:02:06;;;;;;;13.15;5.47;;;;;;;;;;5076191;28;20111;-69
2023/05/28 00:04:32;;;;;;;12.23;5.40;;;;;;;;;;5071407;28;20100;-69
2023/05/28 00:06:58;;;;;;;12.90;5.60;;;;;;;;;;5080923;28;20067;-69
2023/05/28 00:09:24;;;;;;;12.15;5.45;;;;;;;;;;5075404;28;20082;-69
2023/05/28 00:11:50;;;;;;;14.43;5.63;;;;;;;;;;5080017;28;20024;-69
2023/05/28 00:14:16;;;;;;;10.15;5.13;;;;;;;;;;5079774;28;20031;-69
2023/05/28 00:16:44;;;;;;;12.15;5.53;;;;;;;;;;5079096;28;20090;-69
2023/05/28 00:19:10;;;;;;;10.25;5.68;;;;;;;;;;5075853;28;20052;-70
2023/05/28 00:21:36;;;;;;;11.57;5.30;;;;;;;;;;5078894;28;20052;-70
2023/05/28 00:24:02;;;;;;;14.13;5.82;;;;;;;;;;5081739;28;20020;-69
2023/05/28 00:26:29;;;;;;;12.25;5.50;;;;;;;;;;5080135;28;20073;-69
2023/05/28 00:28:55;;;;;;;9.30;5.28;;;;;;;;;;5078800;28;20064;-69
2023/05/28 00:31:21;;;;;;;18.65;7.32;;;;;;;;;;5078906;28;20063;-70
2023/05/28 00:33:47;;;;;;;12.88;6.10;;;;;;;;;;5078172;28;20473;-69
2023/05/28 00:36:13;;;;;;;12.80;6.15;;;;;;;;;;5080461;28;20096;-69
2023/05/28 00:38:39;;;;;;;13.48;5.78;;;;;;;;;;5079057;28;20103;-69
2023/05/28 00:41:05;;;;;;;13.15;6.22;;;;;;;;;;5076186;28;20112;-69
2023/05/28 00:43:31;;;;;;;13.07;5.70;;;;;;;;;;5078155;28;20078;-69
2023/05/28 00:45:59;;;;;;;12.50;6.07;;;;;;;;;;5078072;28;20040;-68
2023/05/28 00:48:25;;;;;;;13.85;6.20;;;;;;;;;;5079494;28;20445;-69
2023/05/28 00:50:52;;;;;;;11.25;5.55;;;;;;;;;;5079232;28;20456;-69
2023/05/28 00:53:19;;;;;;;14.23;6.20;;;;;;;;;;5076854;28;20070;-69
2023/05/28 00:55:45;;;;;;;11.93;5.90;;;;;;;;;;5078567;28;20024;-69
2023/05/28 00:58:11;;;;;;;9.38;4.80;;;;;;;;;;5077590;28;20216;-70
2023/05/28 01:00:39;;;;;;;10.70;5.18;;;;;;;;;;5081080;28;20016;-69
2023/05/28 01:03:05;;;;;;;10.48;5.80;;;;;;;;;;5083300;28;20025;-69
2023/05/28 01:05:31;;;;;;;12.88;5.53;;;;;;;;;;5085689;28;20055;-69
2023/05/28 01:08:01;;;;;;;10.23;5.20;;;;;;;;;;5079491;28;20500;-69
2023/05/28 01:10:28;;;;;;;8.35;5.07;;;;;;;;;;5079491;28;20077;-69
2023/05/28 01:12:56;;;;;;;7.68;4.82;;;;;;;;;;5082150;28;20112;-69
2023/05/28 01:15:23;;;;;;;11.20;5.38;;;;;;;;;;5080594;28;20067;-69
2023/05/28 01:17:49;;;;;;;10.60;5.20;;;;;;;;;;5059805;28;20495;-69
2023/05/28 01:20:15;;;;;;;15.85;5.43;;;;;;;;;;5079730;28;20046;-68
2023/05/28 01:22:51;;;;;;;9.90;5.35;;;;;;;;;;5077705;28;20032;-69
2023/05/28 01:25:18;;;;;;;11.43;5.40;;;13.00;99.90;;;;;;5082060;28;20032;-68
2023/05/28 01:27:43;;;;;;;13.75;6.07;;;12.80;99.90;;;;;;5084381;28;20035;-69
2023/05/28 01:30:11;;;;;;;11.05;6.03;;;12.60;99.90;;;;;;5079911;28;20017;-69
2023/05/28 01:32:37;;;;;;;12.73;5.93;;;12.60;99.90;;;;;;5084534;28;20024;-69
2023/05/28 01:35:05;;;;;;;15.27;5.95;;;12.50;99.90;;;;;;5081738;28;20093;-69
2023/05/28 01:37:33;;;;;;;9.43;5.07;;;12.50;99.90;;;;;;5081386;28;20453;-70
2023/05/28 01:40:00;;;;;;;12.57;6.10;;;12.50;99.90;;;;;;5079648;28;20036;-69
2023/05/28 01:42:28;;;;;;;15.60;5.82;;;12.50;99.90;;;;;;5083709;28;20022;-69
2023/05/28 01:44:54;;;;;;;14.07;5.60;;;12.40;99.90;;;;;;5084762;28;20024;-69
2023/05/28 01:47:20;;;;;;;11.38;6.18;;;12.40;99.90;;;;;;5080622;28;20031;-70
2023/05/28 01:49:46;;;;;;;15.07;6.32;;;12.40;99.90;;;;;;5082430;28;20486;-69
2023/05/28 01:52:13;;;;;;;13.35;5.70;;;12.30;99.90;;;;;;5081732;28;20028;-69
2023/05/28 01:54:40;;;;;;;13.38;5.82;;;12.30;99.90;;;;;;5081012;28;20028;-69
2023/05/28 01:57:06;;;;;;;11.75;5.85;;;12.30;99.90;;;;;;5082221;28;20063;-69
2023/05/28 01:59:32;;;;;;;12.25;6.03;;;12.30;99.90;;;;;;5082451;28;20021;-69
2023/05/28 02:01:57;;;;;;;13.57;6.47;;;12.30;99.90;;;;;;5081773;28;20378;-69
2023/05/28 02:04:24;;;;;;;12.02;5.18;;;12.30;99.90;;;;;;5080148;28;20032;-69
2023/05/28 02:06:50;;;;;;;10.40;5.35;;;12.30;99.90;;;;;;5086030;28;20445;-69
2023/05/28 02:09:15;;;;;;;8.20;5.32;;;12.30;99.90;;;;;;5079566;28;20656;-70
2023/05/28 02:11:41;;;;;;;9.77;5.53;;;12.20;99.90;;;;;;5079621;28;20027;-70
2023/05/28 02:14:07;;;;;;;13.68;5.93;;;12.10;99.90;;;;;;5078542;28;20033;-70
2023/05/28 02:16:32;;;;;;;12.82;6.40;;;12.10;99.90;;;;;;5081577;28;20359;-69
2023/05/28 02:18:59;;;;;;;13.35;6.70;;;12.00;99.90;;;;;;5080889;28;20032;-69
2023/05/28 02:21:24;;;;;;;15.73;6.50;;;12.00;99.90;;;;;;5083575;28;20076;-69
2023/05/28 02:23:50;;;;;;;13.65;5.80;;;11.90;99.90;;;;;;5083430;28;20024;-70
2023/05/28 02:26:17;;;;;;;9.75;5.85;;;11.80;99.90;;;;;;5079672;28;20043;-69
2023/05/28 02:28:43;;;;;;;9.35;5.88;;;11.70;99.90;;;;;;5071555;28;20025;-70
2023/05/28 02:31:10;;;;;;;11.20;6.00;;;11.70;99.90;;;;;;5082359;28;20111;-69
2023/05/28 02:33:37;;;;;;;12.40;5.63;;;11.60;99.90;;;;;;5084035;28;20040;-70
2023/05/28 02:36:03;;;;;;;10.65;5.57;;;11.50;99.90;;;;;;5074815;28;20113;-69
2023/05/28 02:38:28;;;;;;;11.88;6.38;;;11.50;99.90;;;;;;5080009;28;20380;-68
2023/05/28 02:40:54;;;;;;;11.48;6.28;;;11.40;99.90;;;;;;5082936;28;20025;-68
2023/05/28 02:43:19;;;;;;;9.80;5.80;;;11.40;99.90;;;;;;5072794;28;20079;-68
2023/05/28 02:45:45;;;;;;;10.95;5.82;;;11.30;99.90;;;;;;5077395;28;20035;-68
2023/05/28 02:48:10;;;;;;;9.73;5.47;;;11.30;99.90;;;;;;5050470;28;20452;-68
2023/05/28 02:50:36;;;;;;;11.00;5.45;;;11.20;99.90;;;;;;5073055;28;20067;-68
2023/05/28 02:53:02;;;;;;;12.50;6.47;;;11.20;99.90;;;;;;5071948;28;20112;-68
2023/05/28 02:55:28;;;;;;;10.82;6.10;;;11.10;99.90;;;;;;5072811;28;20097;-68
2023/05/28 02:57:54;;;;;;;16.13;7.47;;;11.10;99.90;;;;;;5074190;28;20045;-68
2023/05/28 03:00:19;;;;;;;11.35;5.95;;;11.10;99.90;;;;;;5054726;28;20030;-68
2023/05/28 03:02:45;;;;;;;11.27;5.75;;;11.00;99.90;;;;;;5082381;28;20028;-69
2023/05/28 03:05:11;;;;;;;12.65;6.03;;;11.00;99.90;;;;;;5076629;28;20020;-69
2023/05/28 03:07:36;;;;;;;10.85;5.80;;;11.00;99.90;;;;;;5074344;28;20032;-69
2023/05/28 03:10:02;;;;;;;10.40;5.93;;;11.00;99.90;;;;;;5071543;28;20099;-68
2023/05/28 03:12:28;;;;;;;14.27;6.47;;;11.00;99.90;;;;;;5072231;28;20509;-68
2023/05/28 03:14:53;;;;;;;13.23;5.97;;;11.00;99.90;;;;;;5071715;28;20038;-69
2023/05/28 03:17:19;;;;;;;13.07;5.90;;;11.00;99.90;;;;;;5070282;28;20033;-69
2023/05/28 03:19:45;;;;;;;11.65;5.88;;;11.00;99.90;;;;;;5070891;28;20036;-69
2023/05/28 03:22:10;;;;;;;12.90;5.47;;;11.00;99.90;;;;;;5071673;28;20032;-69
2023/05/28 03:24:39;;;;;;;8.18;5.30;;;11.00;99.90;;;;;;5053516;28;20113;-69
2023/05/28 03:27:05;;;;;;;12.52;5.68;;;11.00;99.90;;;;;;5061560;28;20474;-68
2023/05/28 03:29:31;;;;;;;12.90;6.50;;;11.00;99.90;;;;;;5080860;28;20056;-68
2023/05/28 03:31:57;;;;;;;16.30;6.43;;;11.00;99.90;;;;;;5059164;28;20114;-69
2023/05/28 03:34:23;;;;;;;12.88;6.05;;;11.00;99.90;;;;;;5071918;28;20031;-69
2023/05/28 03:36:49;;;;;;;12.23;5.40;;;11.00;99.90;;;;;;5077173;28;20064;-69
2023/05/28 03:39:16;;;;;;;10.57;5.45;;;11.00;99.90;;;;;;5071229;28;20456;-69
2023/05/28 03:41:41;;;;;;;11.68;5.55;;;11.00;99.90;;;;;;5072084;28;20040;-69
2023/05/28 03:44:07;;;;;;;10.65;5.32;;;11.10;99.90;;;;;;5070832;28;20432;-69
2023/05/28 03:46:32;;;;;;;12.05;6.32;;;11.10;99.90;;;;;;5072312;28;20031;-69
2023/05/28 03:48:58;;;;;;;11.60;5.85;;;11.10;99.90;;;;;;5067034;28;20024;-69
2023/05/28 03:51:24;;;;;;;14.07;6.50;;;11.10;99.90;;;;;;5070955;28;20074;-69
2023/05/28 03:53:50;;;;;;;11.80;5.82;;;11.00;99.90;;;;;;5078058;28;20487;-69
2023/05/28 03:56:16;;;;;;;9.82;5.85;;;11.10;99.90;;;;;;5070117;28;20100;-69
2023/05/28 03:58:42;;;;;;;12.30;5.47;;;11.10;99.90;;;;;;5070419;28;20029;-69
2023/05/28 04:01:07;;;;;;;13.40;5.60;;;11.10;99.90;;;;;;5068308;28;20029;-69
2023/05/28 04:03:33;;;;;;;14.43;6.20;;;11.20;99.90;;;;;;5070442;28;20039;-69
2023/05/28 04:05:59;;;;;;;11.52;5.45;;;11.20;99.90;;;;;;5079996;28;20030;-69
2023/05/28 04:08:25;;;;;;;9.70;5.05;;;11.20;99.90;;;;;;5072468;28;20082;-69
2023/05/28 04:10:50;;;;;;;9.68;5.22;;;11.20;99.90;;;;;;5069975;28;20377;-69
2023/05/28 04:13:16;;;;;;;9.98;5.75;;;11.30;99.90;;;;;;5069840;28;20024;-69
2023/05/28 04:15:42;;;;;;;8.70;5.05;;;11.30;99.90;;;;;;5070605;28;20028;-69
2023/05/28 04:18:07;;;;;;;9.27;5.25;;;11.30;99.90;;;;;;5069589;28;20028;-69
2023/05/28 04:20:35;;;;;;;8.05;4.70;;;11.40;99.90;;;;;;5063855;28;20056;-69
2023/05/28 04:23:01;;;;;;;9.52;5.22;;;11.40;99.90;;;;;;5069669;28;20024;-69
2023/05/28 04:25:28;;;;;;;10.18;4.78;;;11.40;99.90;;;;;;5075820;28;20036;-69
2023/05/28 04:27:54;;;;;;;10.02;4.82;;;11.50;99.90;;;;;;5073115;28;20479;-69
2023/05/28 04:30:22;;;;;;;8.48;5.10;;;11.50;99.90;;;;;;5067090;28;20021;-70
2023/05/28 04:32:51;;;;;;;11.45;5.20;;;11.60;99.90;;;;;;5070849;28;20032;-69
2023/05/28 04:35:17;;;;;;;10.60;4.88;;;11.60;99.90;;;;;;5067929;28;20071;-69
2023/05/28 04:37:44;;;;;;;10.43;5.43;;;11.70;99.90;;;;;;5060168;28;20035;-69
2023/05/28 04:40:13;;;;;;;11.93;5.85;;;11.80;99.90;;;;;;5068976;28;20392;-69
2023/05/28 04:42:42;;;;;;;8.35;4.90;;;11.80;99.90;;;;;;5074778;28;20036;-69
2023/05/28 04:45:09;;;;;;;10.32;5.18;;;11.90;99.90;;;;;;5070046;28;20032;-69
2023/05/28 04:47:36;;;;;;;11.48;5.20;;;12.00;99.90;;;;;;5065782;28;20024;-69
2023/05/28 04:50:04;;;;;;;9.98;4.97;;;12.10;99.90;;;;;;5030629;28;1098022;-69
2023/05/28 04:52:32;;;;;;;9.05;4.93;;;12.20;99.90;;;;;;5071600;28;20584;-69
2023/05/28 04:54:58;;;;;;;13.52;6.28;;;12.20;99.90;;;;;;5069547;28;20036;-69
2023/05/28 04:57:23;;;;;;;13.02;6.05;;;12.40;99.90;;;;;;5070980;28;20033;-70
2023/05/28 04:59:50;;;;;;;8.80;5.70;;;12.40;99.90;;;;;;5069323;28;20024;-69
2023/05/28 05:02:19;;;;;;;10.80;5.15;;;12.50;99.90;;;;;;5070010;28;20107;-69
2023/05/28 05:04:45;;;;;;;14.27;5.43;;;12.60;99.90;;;;;;5071675;28;20090;-69
2023/05/28 05:07:12;;;;;;;10.32;4.75;;;12.70;99.90;;;;;;5076959;28;20036;-70
2023/05/28 05:09:38;;;;;;;14.88;7.10;;;12.80;99.90;;;;;;5065121;28;20028;-69
2023/05/28 05:12:03;;;;;;;12.40;6.38;;;12.90;99.90;;;;;;5070147;28;20039;-69
2023/05/28 05:14:29;;;;;;;16.25;7.30;;;13.00;99.90;;;;;;5052505;28;20029;-69
2023/05/28 05:16:55;;;;;;;16.27;6.82;;;13.10;99.90;;;;;;5075204;28;20511;-69
2023/05/28 05:19:20;;;;;;;16.48;7.55;;;13.10;99.90;;;;;;5067745;28;20053;-69
2023/05/28 05:21:46;;;;;;;13.40;7.20;;;13.20;99.90;;;;;;5070518;28;20421;-69
2023/05/28 05:24:12;;;;;;;13.60;7.55;;;13.30;99.90;;;;;;5069360;28;20149;-69
2023/05/28 05:26:37;;;;;;;16.90;7.43;;;13.40;99.90;;;;;;5070946;28;20068;-70
2023/05/28 05:29:03;;;;;;;17.08;6.43;;;13.50;99.90;;;;;;5071591;28;20021;-69
2023/05/28 05:31:28;;;;;;;14.52;7.25;;;13.50;99.90;;;;;;5051091;28;20028;-69
2023/05/28 05:33:54;;;;;;;14.18;6.50;;;13.60;99.90;;;;;;5070115;28;20469;-69
2023/05/28 05:36:20;;;;;;;12.93;6.38;;;13.70;99.90;;;;;;5077858;28;20032;-69
2023/05/28 05:38:46;;;;;;;16.48;7.55;;;13.80;99.90;;;;;;5070431;28;20131;-69
2023/05/28 05:41:12;;;;;;;15.88;7.40;;;13.90;99.90;;;;;;5069769;28;20028;-70
2023/05/28 05:43:37;;;;;;;19.85;7.82;;;14.00;99.90;;;;;;5069977;28;20028;-69
2023/05/28 05:46:03;;;;;;;15.80;7.53;;;14.10;99.90;;;;;;5069339;28;20036;-69
2023/05/28 05:48:29;;;;;;;13.25;7.45;;;14.20;99.90;;;;;;5073364;28;20024;-69
2023/05/28 05:50:55;;;;;;;15.38;7.47;;;14.30;99.90;;;;;;5073315;28;20109;-69
2023/05/28 05:53:21;;;;;;;12.95;7.28;;;14.30;99.90;;;;;;5076771;28;20041;-69
2023/05/28 05:55:47;;;;;;;13.35;7.53;;;14.40;99.90;;;;;;5072264;28;20108;-70
2023/05/28 05:58:13;;;;;;;15.90;7.95;;;14.50;99.90;;;;;;5072591;28;20195;-70
2023/05/28 06:00:40;;;;;;;12.60;7.40;;;14.50;99.90;;;;;;5073670;28;20031;-70
2023/05/28 06:03:06;;;;;;;16.58;7.28;;;14.50;99.90;;;;;;5072140;28;20066;-69
2023/05/28 06:05:32;;;;;;;12.95;6.88;;;14.60;99.90;;;;;;5074174;28;20482;-69
2023/05/28 06:07:58;;;;;;;13.57;6.50;;;14.60;99.90;;;;;;5071101;28;20036;-69
2023/05/28 06:10:24;;;;;;;16.55;6.75;;;14.60;99.90;;;;;;5082622;28;20032;-69
2023/05/28 06:12:49;;;;;;;13.73;7.40;;;14.70;99.90;;;;;;5079442;28;20062;-70
2023/05/28 06:15:15;;;;;;;16.35;7.22;;;14.80;99.90;;;;;;5079611;28;20020;-70
2023/05/28 06:17:41;;;;;;;15.55;6.85;;;15.00;99.90;;;;;;5078938;28;20039;-70
2023/05/28 06:20:08;;;;;;;13.73;7.38;;;15.10;99.90;;;;;;5080371;28;20028;-70
2023/05/28 06:22:34;;;;;;;12.25;6.15;;;15.10;99.90;;;;;;5083005;28;20056;-70
2023/05/28 06:25:00;;;;;;;16.77;7.15;;;15.20;99.90;;;;;;5082119;28;20079;-70
2023/05/28 06:27:27;;;;;;;15.23;7.18;;;15.20;99.90;;;;;;5079456;28;20036;-70
2023/05/28 06:29:53;;;;;;;14.02;6.70;;;15.40;99.90;;;;;;5080812;28;20016;-70
2023/05/28 06:32:18;;;;;;;12.80;5.72;;;15.50;99.90;;;;;;5082629;28;20392;-70
2023/05/28 06:34:44;;;;;;;16.75;6.90;;;15.60;99.90;;;;;;5084056;28;20077;-71
2023/05/28 06:37:10;;;;;;;12.10;5.88;;;15.90;99.90;;;;;;5069755;28;20145;-69
2023/05/28 06:39:36;;;;;;;12.68;6.15;;;15.90;99.90;;;;;;5076849;28;20053;-70
2023/05/28 06:42:02;;;;;;;12.52;5.38;;;16.10;99.90;;;;;;5081041;28;20032;-70
2023/05/28 06:44:28;;;;;;;11.57;6.30;;;16.10;99.90;;;;;;5078554;28;20032;-70
2023/05/28 06:46:53;;;;;;;11.73;6.05;;;16.20;99.90;;;;;;5061680;28;20111;-71
2023/05/28 06:49:19;;;;;;;14.05;6.47;;;16.30;99.80;;;;;;5075037;28;20031;-71
2023/05/28 06:51:45;;;;;;;13.15;5.60;;;16.40;99.50;;;;;;5062338;28;20025;-69
2023/05/28 06:54:10;;;;;;;17.92;6.32;;;16.50;99.10;;;;;;5056438;28;20115;-69
2023/05/28 06:56:36;;;;;;;11.63;5.65;;;16.50;98.90;;;;;;5069932;28;20033;-70
2023/05/28 06:59:01;;;;;;;11.43;5.63;;;16.60;98.50;;;;;;5058165;28;20055;-70
2023/05/28 07:01:27;;;;;;;10.90;5.47;;;16.70;98.10;;;;;;5061160;28;20462;-71
2023/05/28 07:03:53;;;;;;;10.23;5.13;;;16.70;97.80;;;;;;5065177;28;20028;-70
2023/05/28 07:06:18;;;;;;;12.35;5.22;;;16.90;97.40;;;;;;5045951;28;20177;-71
2023/05/28 07:08:44;;;;;;;9.45;4.78;;;17.10;96.70;;;;;;5064602;28;20024;-71
2023/05/28 07:11:13;;;;;;;14.48;4.97;;;17.20;96.50;;;;;;5063976;28;20481;-70
2023/05/28 07:13:39;;;;;;;11.90;5.38;;;17.50;95.50;;;;;;5064527;28;20094;-70
2023/05/28 07:16:06;;;;;;;10.30;4.68;;;17.50;95.40;;;;;;5062408;28;20031;-70
2023/05/28 07:18:32;;;;;;;12.13;5.05;;;17.50;95.20;;;;;;5066458;28;20028;-71
2023/05/28 07:20:58;;;;;;;10.82;5.40;;;17.60;94.70;;;;;;5066020;28;20056;-69
2023/05/28 07:23:23;;;;;;;8.88;4.65;;;17.70;94.50;;;;;;5064996;28;20059;-71
2023/05/28 07:25:49;;;;;;;12.68;5.35;;;17.70;94.70;;;;;;5063837;28;20022;-71
2023/05/28 07:28:15;;;;;;;11.20;4.63;;;17.70;94.50;;;;;;5065823;28;20675;-71
2023/05/28 07:30:41;;;;;;;11.30;4.70;;;17.80;94.10;;;;;;5041163;28;20055;-70
2023/05/28 07:33:08;;;;;;;9.13;4.75;;;18.00;93.40;;;;;;5065233;28;20024;-72
2023/05/28 07:35:34;;;;;;;14.07;5.30;;;18.00;93.60;;;;;;5058688;28;20073;-74
2023/05/28 07:38:01;;;;;;;14.10;5.25;;;18.10;93.20;;;;;;5063968;28;20094;-73
2023/05/28 07:40:27;;;;;;;12.38;5.18;;;18.30;93.00;;;;;;5061853;28;20025;-73
2023/05/28 07:42:52;;;;;;;10.27;4.80;;;18.40;92.60;;;;;;5065257;28;20133;-72
2023/05/28 07:45:18;;;;;;;12.98;5.15;;;18.50;92.50;;;;;;5061431;28;20040;-75
2023/05/28 07:47:43;;;;;;;8.93;4.60;;;18.40;93.00;;;;;;5061639;28;20025;-74
2023/05/28 07:50:10;;;;;;;12.27;5.07;;;18.60;93.30;;;;;;5044602;28;20450;-74
2023/05/28 07:52:36;;;;;;;13.40;5.03;;;18.80;92.30;;;;;;5049268;28;20070;-72
2023/05/28 07:55:03;;;;;;;12.45;5.18;;;18.80;92.20;;;;;;5046309;28;20067;-73
2023/05/28 07:57:29;;;;;;;12.73;5.10;;;18.90;92.30;;;;;;5050881;28;20036;-74
2023/05/28 07:59:55;;;;;;;14.32;5.43;;;19.00;92.10;;;;;;5049028;28;20029;-71
2023/05/28 08:02:21;;;;;;;10.05;4.40;;;19.10;91.70;;;;;;5053437;28;20622;-75
2023/05/28 08:04:48;;;;;;;9.45;4.43;;;19.10;91.70;;;;;;5050550;28;20040;-72
2023/05/28 08:07:13;;;;;;;10.25;4.45;;;19.20;91.90;;;;;;5049059;28;20037;-71
2023/05/28 08:09:41;;;;;;;10.32;4.55;;;19.40;91.50;;;;;;5044771;28;20025;-71
2023/05/28 08:12:07;;;;;;;9.88;4.10;;;19.60;91.30;;;;;;5049622;28;20581;-69
2023/05/28 08:14:33;;;;;;;11.95;4.82;;;19.70;91.40;;;;;;5050170;28;20033;-72
2023/05/28 08:16:58;;;;;;;9.27;4.18;;;19.90;90.90;;;;;;5049771;28;20497;-72
2023/05/28 08:19:26;;;;;;;11.30;5.25;;;20.10;90.60;;;;;;5049088;28;20036;-71
2023/05/28 08:21:52;;;;;;;10.85;4.63;;;20.20;89.60;;;;;;5050105;28;20087;-72
2023/05/28 08:24:18;;;;;;;9.15;4.45;;;20.30;89.80;;;;;;5041159;28;20466;-73
2023/05/28 08:26:44;;;;;;;12.90;4.95;;;20.30;88.60;;;;;;5050265;28;20025;-72
2023/05/28 08:29:10;;;;;;;15.43;5.90;;;20.40;88.80;;;;;;5046890;28;20033;-72
2023/05/28 08:31:35;;;;;;;9.10;4.80;;;20.50;88.30;;;;;;5047139;28;20049;-71
2023/05/28 08:34:01;;;;;;;9.68;4.68;;;20.50;87.60;;;;;;5051927;28;20453;-70
2023/05/28 08:36:26;;;;;;;8.70;4.53;;;20.50;87.40;;;;;;5052849;28;20059;-71
2023/05/28 08:38:52;;;;;;;10.13;5.00;;;20.60;88.60;;;;;;5040312;28;20469;-70
2023/05/28 08:41:18;;;;;;;12.48;5.30;;;20.80;88.20;;;;;;5049460;28;20054;-70
2023/05/28 08:43:44;;;;;;;7.63;4.60;;;20.80;88.10;;;;;;5049859;28;20021;-71
2023/05/28 08:46:11;;;;;;;9.93;4.15;;;20.90;87.90;;;;;;5049066;28;20025;-71
2023/05/28 08:48:40;;;;;;;12.80;5.60;;;21.00;88.30;;;;;;5047794;28;20033;-71
2023/05/28 08:51:06;;;;;;;14.95;4.75;;;21.20;87.30;;;;;;5059817;28;20052;-71
2023/05/28 08:53:38;;;;;;;13.57;4.93;;;21.30;86.30;;;;;;5068081;28;20386;-72
2023/05/28 08:56:05;;;;;;;10.55;4.80;;;21.30;86.60;;;;;;5069189;28;20487;-69
2023/05/28 08:58:30;;;;;;;11.40;5.68;;;21.40;86.00;;;;;;5069738;28;20073;-71
2023/05/28 09:00:56;;;;;;;12.27;5.03;;;21.60;85.00;;;;;;5065607;28;20036;-69
2023/05/28 09:03:21;;;;;;;9.52;4.82;;;21.60;85.30;;;;;;5069586;28;20024;-69
2023/05/28 09:05:47;;;;;;;11.73;4.97;;;21.60;85.40;;;;;;5069455;28;20040;-71
2023/05/28 09:08:13;;;;;;;8.93;4.80;;;21.70;85.10;;;;;;5061938;28;20095;-69
2023/05/28 09:10:40;;;;;;;13.00;5.25;;;21.90;85.00;;;;;;5069148;28;20040;-71
2023/05/28 09:13:06;;;;;;;12.68;4.90;;;22.00;85.30;;;;;;5059500;28;20036;-70
2023/05/28 09:15:37;;;;;;;12.75;5.25;;;22.10;84.30;;;;;;5064703;28;20029;-71
2023/05/28 09:18:05;;;;;;;13.02;5.25;;;22.20;84.00;;;;;;5063167;28;20041;-70
2023/05/28 09:20:31;;;;;;;11.85;5.05;;;22.30;83.80;;;;;;5069341;28;20131;-71
2023/05/28 09:23:06;;;;;;;14.85;5.47;;;22.50;83.60;;;;;;5063940;28;20061;-69
2023/05/28 09:25:35;;;;;;;11.93;5.20;;;22.70;83.30;;;;;;5070177;28;20035;-68
2023/05/28 09:28:01;;;;;;;10.18;4.80;;;22.70;82.90;;;;;;5076066;28;20036;-69
2023/05/28 09:30:29;;;;;;;10.25;4.60;;;22.70;82.80;;;;;;5074835;28;20056;-71
2023/05/28 09:33:05;;;;;;;7.57;4.60;;;22.80;82.60;;;;;;5072649;28;20035;-69
2023/05/28 09:35:31;;;;;;;11.75;4.75;;;22.80;81.60;;;;;;5074223;28;20028;-72
2023/05/28 09:38:07;;;;;;;8.20;4.53;;;22.90;81.30;;;;;;5072091;28;20382;-71
2023/05/28 09:40:37;;;;;;;9.20;4.40;;;23.20;80.90;;;;;;5061432;28;20115;-69
2023/05/28 09:43:04;;;;;;;9.15;4.50;;;23.30;80.10;;;;;;5072003;28;20445;-68
2023/05/28 09:45:29;;;;;;;11.30;5.03;;;23.30;79.40;;;;;;5082651;28;20029;-69
2023/05/28 09:47:55;;;;;;;9.45;4.70;;;23.30;78.70;;;;;;5067376;28;20028;-70
2023/05/28 09:50:21;;;;;;;11.95;4.75;;;23.30;78.70;;;;;;5078870;28;20047;-71
2023/05/28 09:52:47;;;;;;;8.10;4.28;;;23.20;78.30;;;;;;5058969;28;20032;-70
2023/05/28 09:55:20;;;;;;;9.32;4.15;;;23.30;77.60;;;;;;5065647;28;20675;-70
2023/05/28 09:58:07;;;;;;;13.90;4.72;;;;;;;;;;5072720;28;20036;-70
2023/05/28 10:00:39;;;;;;;9.45;4.35;;;;;;;;;;5073153;28;20099;-70
2023/05/28 10:03:11;;;;;;;12.70;4.30;;;24.00;90.60;;;;;;5070844;28;20021;-69
2023/05/28 10:05:38;;;;;;;11.05;4.60;;;24.00;74.90;;;;;;5072565;28;20120;-69
2023/05/28 10:08:05;;;;;;;7.63;4.10;;;24.10;75.80;;;;;;5060822;28;20029;-69
2023/05/28 10:10:31;;;;;;;10.27;4.68;;;24.30;73.60;;;;;;5067719;28;20032;-69
2023/05/28 10:12:58;;;;;;;11.20;4.75;;;24.30;72.30;;;;;;5066652;28;20440;-69
2023/05/28 10:15:24;;;;;;;10.20;4.38;;;24.30;72.20;;;;;;5074039;28;20359;-70
2023/05/28 10:17:53;;;;;;;10.13;4.28;;;24.40;73.30;;;;;;5070310;28;20040;-70
2023/05/28 10:20:18;;;;;;;11.65;4.82;;;24.50;72.70;;;;;;5071500;28;20035;-68
2023/05/28 10:22:44;;;;;;;11.55;5.00;;;24.60;71.20;;;;;;5072618;28;20020;-68
2023/05/28 10:25:11;;;;;;;12.13;4.47;;;24.70;70.50;;;;;;5070856;28;20024;-69
2023/05/28 10:27:44;;;;;;;8.95;3.97;;;24.70;71.70;;;;;;5073036;28;20032;-69
2023/05/28 10:30:12;;;;;;;11.27;4.47;;;24.70;69.10;;;;;;5071244;28;20099;-72
2023/05/28 10:32:40;;;;;;;10.98;5.10;;;24.80;68.60;;;;;;5074701;28;20640;-72
2023/05/28 10:35:07;;;;;;;8.05;4.45;;;24.80;69.00;;;;;;5070641;28;20079;-73
2023/05/28 10:37:35;;;;;;;7.78;4.13;;;24.90;69.20;;;;;;5058841;28;20493;-72
2023/05/28 10:40:01;;;;;;;11.15;4.28;;;25.00;69.40;;;;;;5070471;28;20433;-72
2023/05/28 10:42:26;;;;;;;10.13;4.00;;;24.90;68.20;;;;;;5072169;28;20112;-72
2023/05/28 10:45:07;;;;;;;11.25;4.43;;;24.90;68.80;;;;;;5071428;28;20033;-73
2023/05/28 10:47:38;;;;;;;11.43;4.68;;;25.00;69.00;;;;;;5070697;28;20427;-73
2023/05/28 10:50:14;;;;;;;9.80;4.38;;;25.10;69.10;;;;;;5078235;28;20048;-73
2023/05/28 10:52:41;;;;;;;9.07;5.00;;;25.40;69.50;;;;;;5062150;28;20029;-73
2023/05/28 10:55:08;;;;;;;8.50;4.10;;;25.60;68.10;;;;;;5057528;28;20040;-73
2023/05/28 10:57:41;;;;;;;9.93;3.70;;;25.70;66.90;;;;;;5042874;28;20033;-73
2023/05/28 11:00:11;;;;;;;8.55;4.30;;;25.70;67.50;;;;;;5046320;28;20032;-72
2023/05/28 11:02:36;;;;;;;10.02;4.20;;;25.70;67.90;;;;;;5060704;28;20032;-73
2023/05/28 11:05:04;;;;;;;8.10;4.30;;;25.80;68.00;;;;;;5060872;28;20426;-72
2023/05/28 11:07:32;;;;;;;9.73;4.35;;;26.00;67.00;;;;;;5049240;28;20032;-71
2023/05/28 11:09:58;;;;;;;10.00;4.55;;;26.10;66.70;;;;;;5052881;28;20025;-71
2023/05/28 11:12:28;;;;;;;9.15;4.32;;;26.00;66.20;;;;;;5056548;28;20152;-71
2023/05/28 11:14:55;;;;;;;7.75;4.25;;;26.20;66.80;;;;;;5054680;28;20033;-71
2023/05/28 11:17:21;;;;;;;10.55;4.60;;;26.30;66.80;;;;;;5055049;28;20060;-71
2023/05/28 11:19:48;;;;;;;7.18;4.10;;;26.40;66.50;;;;;;5053556;28;20028;-72
2023/05/28 11:22:15;;;;;;;8.57;4.65;;;26.50;67.30;;;;;;5065351;28;20807;-71
2023/05/28 11:25:00;;;;;;;14.23;5.50;;;26.70;67.20;;;;;;5054549;28;20671;-72
2023/05/28 11:27:30;;;;;;;9.45;4.53;;;26.70;67.10;;;;;;5061472;28;20442;-72
2023/05/28 11:29:57;;;;;;;11.95;5.00;;;26.30;67.00;;;;;;5049069;28;20383;-71
2023/05/28 11:32:24;;;;;;;8.05;4.18;;;26.10;67.90;;;;;;5046437;28;20397;-72
2023/05/28 11:34:51;;;;;;;7.60;4.57;;;26.20;67.60;;;;;;5051037;28;20090;-70
2023/05/28 11:37:24;;;;;;;10.32;4.75;;;26.30;66.70;;;;;;5048405;28;20029;-70
2023/05/28 11:39:51;;;;;;;8.15;4.60;;;26.30;65.90;;;;;;5060372;28;20029;-70
2023/05/28 11:42:20;;;;;;;10.18;4.78;;;26.50;66.10;;;;;;5051362;28;20029;-71
2023/05/28 11:44:47;;;;;;;14.95;5.35;;;26.60;66.20;;;;;;5051197;28;20036;-71
2023/05/28 11:47:13;;;;;;;9.05;4.20;;;26.60;65.60;;;;;;5049503;28;20208;-72
2023/05/28 11:49:42;;;;;;;9.02;4.18;;;26.70;66.10;;;;;;5053766;28;20032;-76
2023/05/28 11:52:11;;;;;;;10.00;3.97;;;26.80;63.70;;;;;;5070999;28;20120;-72
2023/05/28 11:54:38;;;;;;;8.23;4.50;;;26.80;62.40;;;;;;5076509;28;20125;-74
2023/05/28 11:57:05;;;;;;;11.25;4.38;;;26.80;62.20;;;;;;5070046;28;20039;-77
2023/05/28 11:59:31;;;;;;;6.78;4.13;;;26.80;62.60;;;;;;5077848;28;20524;-73
2023/05/28 12:02:18;;;;;;;7.40;3.72;;;26.90;61.30;;;;;;5070567;28;20025;-70
2023/05/28 12:04:58;;;;;;;7.78;4.47;;;26.90;60.90;;;;;;5071338;28;20372;-78
2023/05/28 12:07:34;;;;;;;6.72;4.43;;;27.00;61.30;;;;;;5069995;28;20461;-72
2023/05/28 12:10:12;;;;;;;7.88;4.07;;;27.10;59.60;;;;;;5065187;28;20029;-73
2023/05/28 12:12:55;;;;;;;9.73;4.55;;;27.20;59.30;;;;;;5074526;28;20040;-70
2023/05/28 12:15:22;;;;;;;9.98;4.13;;;27.40;59.50;;;;;;5069804;28;20435;-69
2023/05/28 12:17:53;;;;;;;9.25;4.43;;;27.50;59.40;;;;;;5066391;28;20025;-69
2023/05/28 12:20:18;;;;;;;7.22;4.72;;;27.60;60.60;;;;;;5068631;28;20035;-72
2023/05/28 12:22:44;;;;;;;10.85;4.45;;;27.80;59.80;;;;;;5071675;28;20025;-72
2023/05/28 12:25:11;;;;;;;8.75;4.55;;;27.70;58.50;;;;;;5071828;28;20047;-71
2023/05/28 12:27:37;;;;;;;5.70;4.18;;;27.20;58.20;;;;;;5069981;28;20050;-81
2023/05/28 12:30:04;;;;;;;7.15;4.95;;;27.10;59.00;;;;;;5074378;28;20122;-70
2023/05/28 12:32:29;;;;;;;7.45;4.35;;;27.20;59.70;;;;;;5070647;28;20035;-70
2023/05/28 12:34:58;;;;;;;12.10;5.05;;;27.30;59.10;;;;;;5069752;28;20350;-74
2023/05/28 12:37:24;;;;;;;8.07;4.82;;;27.50;58.70;;;;;;5069547;28;20035;-68
2023/05/28 12:39:52;;;;;;;9.38;4.90;;;27.70;58.70;;;;;;5080011;28;20021;-71
2023/05/28 12:42:18;;;;;;;8.45;4.60;;;27.90;58.00;;;;;;5070349;28;20094;-69
2023/05/28 12:44:44;;;;;;;9.05;4.97;;;28.10;58.70;;;;;;5070889;28;20025;-68
2023/05/28 12:47:10;;;;;;;7.78;4.43;;;28.30;58.10;;;;;;5074177;28;20057;-71
2023/05/28 12:49:36;;;;;;;9.05;4.93;;;28.40;57.80;;;;;;5070574;28;20025;-69